sensor_id;sensor_type;location;lat;lon;timestamp;P1;durP1;ratioP1;P2;durP2;ratioP2
75044;SDS011;63614;56.026;35.960;2023-04-15T00:01:22;3.20;;;1.80;;
75044;SDS011;63614;56.026;35.960;2023-04-15T00:03:52;5.43;;;2.28;;
75044;SDS011;63614;56.026;35.960;2023-04-15T00:06:21;5.05;;;1.92;;
75044;SDS011;63614;56.026;35.960;2023-04-15T00:08:47;4.60;;;1.95;;
75044;SDS011;63614;56.026;35.960;2023-04-15T00:11:15;5.93;;;2.17;;
75044;SDS011;63614;56.026;35.960;2023-04-15T00:13:41;5.95;;;2.03;;
75044;SDS011;63614;56.026;35.960;2023-04-15T00:16:07;4.45;;;2.20;;
75044;SDS011;63614;56.026;35.960;2023-04-15T00:18:34;5.30;;;2.38;;
75044;SDS011;63614;56.026;35.960;2023-04-15T00:21:00;6.30;;;1.92;;
75044;SDS011;63614;56.026;35.960;2023-04-15T00:23:26;4.93;;;1.95;;
75044;SDS011;63614;56.026;35.960;2023-04-15T00:25:52;3.45;;;1.80;;
75044;SDS011;63614;56.026;35.960;2023-04-15T00:28:17;3.78;;;1.80;;
75044;SDS011;63614;56.026;35.960;2023-04-15T00:30:44;5.53;;;1.90;;
75044;SDS011;63614;56.026;35.960;2023-04-15T00:33:10;3.28;;;1.90;;
75044;SDS011;63614;56.026;35.960;2023-04-15T00:35:37;7.28;;;1.80;;
75044;SDS011;63614;56.026;35.960;2023-04-15T00:38:03;4.03;;;2.00;;
75044;SDS011;63614;56.026;35.960;2023-04-15T00:40:30;6.20;;;2.00;;
75044;SDS011;63614;56.026;35.960;2023-04-15T00:42:55;4.53;;;2.03;;
75044;SDS011;63614;56.026;35.960;2023-04-15T00:45:21;6.40;;;1.90;;
75044;SDS011;63614;56.026;35.960;2023-04-15T00:47:47;5.40;;;2.00;;
75044;SDS011;63614;56.026;35.960;2023-04-15T00:50:13;4.00;;;2.35;;
75044;SDS011;63614;56.026;35.960;2023-04-15T00:52:39;2.78;;;1.50;;
75044;SDS011;63614;56.026;35.960;2023-04-15T00:55:06;5.32;;;1.70;;
75044;SDS011;63614;56.026;35.960;2023-04-15T00:57:32;6.00;;;1.80;;
75044;SDS011;63614;56.026;35.960;2023-04-15T00:59:59;7.97;;;2.00;;
75044;SDS011;63614;56.026;35.960;2023-04-15T01:02:26;3.13;;;1.65;;
75044;SDS011;63614;56.026;35.960;2023-04-15T01:04:51;4.32;;;1.75;;
75044;SDS011;63614;56.026;35.960;2023-04-15T01:07:17;7.57;;;2.00;;
75044;SDS011;63614;56.026;35.960;2023-04-15T01:09:43;7.65;;;1.73;;
75044;SDS011;63614;56.026;35.960;2023-04-15T01:12:13;3.53;;;1.80;;
75044;SDS011;63614;56.026;35.960;2023-04-15T01:14:40;3.55;;;1.70;;
75044;SDS011;63614;56.026;35.960;2023-04-15T01:17:07;9.40;;;2.35;;
75044;SDS011;63614;56.026;35.960;2023-04-15T01:19:35;19.50;;;2.15;;
75044;SDS011;63614;56.026;35.960;2023-04-15T01:24:28;6.40;;;1.80;;
75044;SDS011;63614;56.026;35.960;2023-04-15T01:26:56;6.05;;;2.10;;
75044;SDS011;63614;56.026;35.960;2023-04-15T01:29:23;5.03;;;2.40;;
75044;SDS011;63614;56.026;35.960;2023-04-15T01:31:50;6.35;;;2.53;;
75044;SDS011;63614;56.026;35.960;2023-04-15T01:34:35;4.57;;;2.53;;
75044;SDS011;63614;56.026;35.960;2023-04-15T01:37:19;3.70;;;1.67;;
75044;SDS011;63614;56.026;35.960;2023-04-15T01:40:04;5.53;;;2.00;;
75044;SDS011;63614;56.026;35.960;2023-04-15T01:42:31;8.10;;;2.55;;
75044;SDS011;63614;56.026;35.960;2023-04-15T01:44:59;3.80;;;1.90;;
75044;SDS011;63614;56.026;35.960;2023-04-15T01:47:26;3.80;;;1.65;;
75044;SDS011;63614;56.026;35.960;2023-04-15T01:49:53;4.13;;;2.00;;
75044;SDS011;63614;56.026;35.960;2023-04-15T01:52:21;3.60;;;2.20;;
75044;SDS011;63614;56.026;35.960;2023-04-15T01:54:49;6.22;;;1.90;;
75044;SDS011;63614;56.026;35.960;2023-04-15T01:57:18;5.00;;;1.80;;
75044;SDS011;63614;56.026;35.960;2023-04-15T01:59:45;3.87;;;1.93;;
75044;SDS011;63614;56.026;35.960;2023-04-15T02:02:12;10.63;;;2.20;;
75044;SDS011;63614;56.026;35.960;2023-04-15T02:04:39;5.72;;;1.90;;
75044;SDS011;63614;56.026;35.960;2023-04-15T02:07:06;6.90;;;2.00;;
75044;SDS011;63614;56.026;35.960;2023-04-15T02:09:35;2.92;;;1.70;;
75044;SDS011;63614;56.026;35.960;2023-04-15T02:12:02;3.30;;;1.67;;
75044;SDS011;63614;56.026;35.960;2023-04-15T02:14:29;5.27;;;2.13;;
75044;SDS011;63614;56.026;35.960;2023-04-15T02:16:56;4.32;;;1.63;;
75044;SDS011;63614;56.026;35.960;2023-04-15T02:19:23;5.73;;;2.60;;
75044;SDS011;63614;56.026;35.960;2023-04-15T02:21:50;4.43;;;1.58;;
75044;SDS011;63614;56.026;35.960;2023-04-15T02:24:17;4.55;;;2.00;;
75044;SDS011;63614;56.026;35.960;2023-04-15T02:26:44;4.47;;;2.00;;
75044;SDS011;63614;56.026;35.960;2023-04-15T02:29:12;7.78;;;2.00;;
75044;SDS011;63614;56.026;35.960;2023-04-15T02:31:40;4.80;;;1.85;;
75044;SDS011;63614;56.026;35.960;2023-04-15T02:34:07;4.57;;;1.85;;
75044;SDS011;63614;56.026;35.960;2023-04-15T02:36:34;9.57;;;1.80;;
75044;SDS011;63614;56.026;35.960;2023-04-15T02:39:01;4.28;;;1.90;;
75044;SDS011;63614;56.026;35.960;2023-04-15T02:41:29;4.35;;;1.90;;
75044;SDS011;63614;56.026;35.960;2023-04-15T02:43:57;4.32;;;1.83;;
75044;SDS011;63614;56.026;35.960;2023-04-15T02:46:24;3.42;;;1.90;;
75044;SDS011;63614;56.026;35.960;2023-04-15T02:48:51;3.13;;;1.58;;
75044;SDS011;63614;56.026;35.960;2023-04-15T02:51:20;3.65;;;1.90;;
75044;SDS011;63614;56.026;35.960;2023-04-15T02:53:48;3.70;;;2.22;;
75044;SDS011;63614;56.026;35.960;2023-04-15T02:56:15;4.10;;;1.90;;
75044;SDS011;63614;56.026;35.960;2023-04-15T02:58:43;12.23;;;1.98;;
75044;SDS011;63614;56.026;35.960;2023-04-15T03:01:11;3.85;;;1.70;;
75044;SDS011;63614;56.026;35.960;2023-04-15T03:03:40;5.75;;;2.20;;
75044;SDS011;63614;56.026;35.960;2023-04-15T03:06:07;3.38;;;1.80;;
75044;SDS011;63614;56.026;35.960;2023-04-15T03:08:35;5.13;;;1.70;;
75044;SDS011;63614;56.026;35.960;2023-04-15T03:11:02;6.28;;;1.88;;
75044;SDS011;63614;56.026;35.960;2023-04-15T03:13:30;3.40;;;1.73;;
75044;SDS011;63614;56.026;35.960;2023-04-15T03:15:59;9.90;;;1.67;;
75044;SDS011;63614;56.026;35.960;2023-04-15T03:18:27;13.30;;;1.77;;
75044;SDS011;63614;56.026;35.960;2023-04-15T03:20:54;7.00;;;2.13;;
75044;SDS011;63614;56.026;35.960;2023-04-15T03:23:22;6.10;;;1.98;;
75044;SDS011;63614;56.026;35.960;2023-04-15T03:28:16;4.97;;;1.75;;
75044;SDS011;63614;56.026;35.960;2023-04-15T03:30:43;11.20;;;1.90;;
75044;SDS011;63614;56.026;35.960;2023-04-15T03:33:10;8.07;;;1.70;;
75044;SDS011;63614;56.026;35.960;2023-04-15T03:35:37;3.53;;;1.80;;
75044;SDS011;63614;56.026;35.960;2023-04-15T03:38:04;4.50;;;1.80;;
75044;SDS011;63614;56.026;35.960;2023-04-15T03:40:31;3.95;;;1.80;;
75044;SDS011;63614;56.026;35.960;2023-04-15T03:42:58;3.70;;;1.55;;
75044;SDS011;63614;56.026;35.960;2023-04-15T03:45:25;3.67;;;1.80;;
75044;SDS011;63614;56.026;35.960;2023-04-15T03:47:52;8.47;;;1.77;;
75044;SDS011;63614;56.026;35.960;2023-04-15T03:50:19;2.77;;;1.60;;
75044;SDS011;63614;56.026;35.960;2023-04-15T03:52:46;5.10;;;1.90;;
75044;SDS011;63614;56.026;35.960;2023-04-15T03:55:13;5.07;;;1.80;;
75044;SDS011;63614;56.026;35.960;2023-04-15T03:57:40;2.40;;;1.60;;
75044;SDS011;63614;56.026;35.960;2023-04-15T04:00:08;4.03;;;1.90;;
75044;SDS011;63614;56.026;35.960;2023-04-15T04:02:41;8.02;;;2.05;;
75044;SDS011;63614;56.026;35.960;2023-04-15T04:05:08;7.15;;;2.05;;
75044;SDS011;63614;56.026;35.960;2023-04-15T04:07:35;6.05;;;2.10;;
75044;SDS011;63614;56.026;35.960;2023-04-15T04:10:02;5.93;;;1.90;;
75044;SDS011;63614;56.026;35.960;2023-04-15T04:12:29;3.72;;;2.05;;
75044;SDS011;63614;56.026;35.960;2023-04-15T04:14:56;8.30;;;2.17;;
75044;SDS011;63614;56.026;35.960;2023-04-15T04:17:23;11.57;;;2.30;;
75044;SDS011;63614;56.026;35.960;2023-04-15T04:19:50;4.73;;;2.00;;
75044;SDS011;63614;56.026;35.960;2023-04-15T04:22:17;3.95;;;2.17;;
75044;SDS011;63614;56.026;35.960;2023-04-15T04:24:47;3.88;;;1.55;;
75044;SDS011;63614;56.026;35.960;2023-04-15T04:27:14;10.32;;;1.88;;
75044;SDS011;63614;56.026;35.960;2023-04-15T04:29:41;5.03;;;2.20;;
75044;SDS011;63614;56.026;35.960;2023-04-15T04:32:09;2.85;;;1.75;;
75044;SDS011;63614;56.026;35.960;2023-04-15T04:34:36;5.53;;;1.98;;
75044;SDS011;63614;56.026;35.960;2023-04-15T04:37:03;7.10;;;2.17;;
75044;SDS011;63614;56.026;35.960;2023-04-15T04:39:30;3.27;;;1.80;;
75044;SDS011;63614;56.026;35.960;2023-04-15T04:41:59;6.55;;;2.28;;
75044;SDS011;63614;56.026;35.960;2023-04-15T04:44:26;5.93;;;1.90;;
75044;SDS011;63614;56.026;35.960;2023-04-15T04:46:53;8.17;;;2.13;;
75044;SDS011;63614;56.026;35.960;2023-04-15T04:49:20;6.47;;;2.27;;
75044;SDS011;63614;56.026;35.960;2023-04-15T04:51:47;6.77;;;2.40;;
75044;SDS011;63614;56.026;35.960;2023-04-15T04:54:14;5.30;;;2.00;;
75044;SDS011;63614;56.026;35.960;2023-04-15T04:56:41;8.70;;;2.17;;
75044;SDS011;63614;56.026;35.960;2023-04-15T04:59:08;4.10;;;2.07;;
75044;SDS011;63614;56.026;35.960;2023-04-15T05:01:35;5.77;;;2.13;;
75044;SDS011;63614;56.026;35.960;2023-04-15T05:04:02;4.18;;;2.20;;
75044;SDS011;63614;56.026;35.960;2023-04-15T05:06:30;8.43;;;2.72;;
75044;SDS011;63614;56.026;35.960;2023-04-15T05:11:24;6.93;;;2.78;;
75044;SDS011;63614;56.026;35.960;2023-04-15T05:13:51;6.63;;;2.27;;
75044;SDS011;63614;56.026;35.960;2023-04-15T05:16:18;4.53;;;2.13;;
75044;SDS011;63614;56.026;35.960;2023-04-15T05:21:12;5.38;;;2.10;;
75044;SDS011;63614;56.026;35.960;2023-04-15T05:23:39;4.35;;;2.20;;
75044;SDS011;63614;56.026;35.960;2023-04-15T05:26:06;7.40;;;2.33;;
75044;SDS011;63614;56.026;35.960;2023-04-15T05:28:33;7.55;;;2.30;;
75044;SDS011;63614;56.026;35.960;2023-04-15T05:31:01;7.53;;;2.45;;
75044;SDS011;63614;56.026;35.960;2023-04-15T05:33:28;7.05;;;2.30;;
75044;SDS011;63614;56.026;35.960;2023-04-15T05:35:55;8.40;;;2.50;;
75044;SDS011;63614;56.026;35.960;2023-04-15T05:38:22;4.50;;;2.20;;
75044;SDS011;63614;56.026;35.960;2023-04-15T05:40:48;4.73;;;2.00;;
75044;SDS011;63614;56.026;35.960;2023-04-15T05:43:16;3.83;;;2.00;;
75044;SDS011;63614;56.026;35.960;2023-04-15T05:45:43;12.17;;;2.33;;
75044;SDS011;63614;56.026;35.960;2023-04-15T05:48:10;9.90;;;2.20;;
75044;SDS011;63614;56.026;35.960;2023-04-15T05:50:39;8.27;;;2.35;;
75044;SDS011;63614;56.026;35.960;2023-04-15T05:53:09;8.32;;;1.90;;
75044;SDS011;63614;56.026;35.960;2023-04-15T05:55:37;7.95;;;2.10;;
75044;SDS011;63614;56.026;35.960;2023-04-15T05:58:04;4.10;;;2.20;;
75044;SDS011;63614;56.026;35.960;2023-04-15T06:00:31;3.10;;;1.77;;
75044;SDS011;63614;56.026;35.960;2023-04-15T06:02:58;4.82;;;2.10;;
75044;SDS011;63614;56.026;35.960;2023-04-15T06:05:25;5.05;;;2.22;;
75044;SDS011;63614;56.026;35.960;2023-04-15T06:07:53;19.63;;;2.25;;
75044;SDS011;63614;56.026;35.960;2023-04-15T06:10:20;10.52;;;2.22;;
75044;SDS011;63614;56.026;35.960;2023-04-15T06:12:47;6.37;;;2.20;;
75044;SDS011;63614;56.026;35.960;2023-04-15T06:15:14;6.82;;;2.20;;
75044;SDS011;63614;56.026;35.960;2023-04-15T06:17:42;11.80;;;2.17;;
75044;SDS011;63614;56.026;35.960;2023-04-15T06:20:09;18.73;;;2.33;;
75044;SDS011;63614;56.026;35.960;2023-04-15T06:25:05;9.73;;;1.80;;
75044;SDS011;63614;56.026;35.960;2023-04-15T06:27:33;4.00;;;1.88;;
75044;SDS011;63614;56.026;35.960;2023-04-15T06:30:00;4.65;;;2.17;;
75044;SDS011;63614;56.026;35.960;2023-04-15T06:32:27;5.45;;;1.67;;
75044;SDS011;63614;56.026;35.960;2023-04-15T06:34:55;5.97;;;1.95;;
75044;SDS011;63614;56.026;35.960;2023-04-15T06:37:22;3.40;;;1.90;;
75044;SDS011;63614;56.026;35.960;2023-04-15T06:39:49;13.10;;;2.20;;
75044;SDS011;63614;56.026;35.960;2023-04-15T06:42:16;6.40;;;2.10;;
75044;SDS011;63614;56.026;35.960;2023-04-15T06:44:43;5.00;;;2.38;;
75044;SDS011;63614;56.026;35.960;2023-04-15T06:47:10;6.20;;;2.20;;
75044;SDS011;63614;56.026;35.960;2023-04-15T06:49:38;7.55;;;2.15;;
75044;SDS011;63614;56.026;35.960;2023-04-15T06:52:06;25.05;;;2.90;;
75044;SDS011;63614;56.026;35.960;2023-04-15T06:54:34;3.80;;;1.90;;
75044;SDS011;63614;56.026;35.960;2023-04-15T06:57:00;3.95;;;2.05;;
75044;SDS011;63614;56.026;35.960;2023-04-15T06:59:27;7.83;;;2.23;;
75044;SDS011;63614;56.026;35.960;2023-04-15T07:01:54;5.93;;;2.30;;
75044;SDS011;63614;56.026;35.960;2023-04-15T07:04:22;12.90;;;3.13;;
75044;SDS011;63614;56.026;35.960;2023-04-15T07:06:49;17.55;;;2.42;;
75044;SDS011;63614;56.026;35.960;2023-04-15T07:09:16;8.93;;;3.00;;
75044;SDS011;63614;56.026;35.960;2023-04-15T07:11:43;8.40;;;2.00;;
75044;SDS011;63614;56.026;35.960;2023-04-15T07:14:10;6.32;;;1.95;;
75044;SDS011;63614;56.026;35.960;2023-04-15T07:16:37;10.00;;;2.33;;
75044;SDS011;63614;56.026;35.960;2023-04-15T07:19:04;3.97;;;2.10;;
75044;SDS011;63614;56.026;35.960;2023-04-15T07:21:31;8.60;;;2.40;;
75044;SDS011;63614;56.026;35.960;2023-04-15T07:23:58;6.70;;;2.20;;
75044;SDS011;63614;56.026;35.960;2023-04-15T07:26:26;5.40;;;2.15;;
75044;SDS011;63614;56.026;35.960;2023-04-15T07:28:52;7.17;;;2.20;;
75044;SDS011;63614;56.026;35.960;2023-04-15T07:31:19;5.63;;;2.28;;
75044;SDS011;63614;56.026;35.960;2023-04-15T07:33:47;10.93;;;2.33;;
75044;SDS011;63614;56.026;35.960;2023-04-15T07:36:14;8.40;;;2.57;;
75044;SDS011;63614;56.026;35.960;2023-04-15T07:38:41;5.37;;;2.17;;
75044;SDS011;63614;56.026;35.960;2023-04-15T07:41:08;12.70;;;2.35;;
75044;SDS011;63614;56.026;35.960;2023-04-15T07:43:36;4.55;;;2.35;;
75044;SDS011;63614;56.026;35.960;2023-04-15T07:46:03;3.80;;;2.00;;
75044;SDS011;63614;56.026;35.960;2023-04-15T07:48:30;11.40;;;2.70;;
75044;SDS011;63614;56.026;35.960;2023-04-15T07:50:57;7.53;;;2.17;;
75044;SDS011;63614;56.026;35.960;2023-04-15T07:53:24;39.60;;;5.07;;
75044;SDS011;63614;56.026;35.960;2023-04-15T07:55:51;4.45;;;1.75;;
75044;SDS011;63614;56.026;35.960;2023-04-15T07:58:18;11.13;;;2.03;;
75044;SDS011;63614;56.026;35.960;2023-04-15T08:00:45;6.85;;;2.00;;
75044;SDS011;63614;56.026;35.960;2023-04-15T08:03:12;23.70;;;3.57;;
75044;SDS011;63614;56.026;35.960;2023-04-15T08:05:39;5.28;;;2.30;;
75044;SDS011;63614;56.026;35.960;2023-04-15T08:08:06;9.70;;;2.10;;
75044;SDS011;63614;56.026;35.960;2023-04-15T08:10:33;21.25;;;3.00;;
75044;SDS011;63614;56.026;35.960;2023-04-15T08:13:01;6.90;;;2.05;;
75044;SDS011;63614;56.026;35.960;2023-04-15T08:15:28;4.10;;;2.10;;
75044;SDS011;63614;56.026;35.960;2023-04-15T08:17:55;13.27;;;2.55;;
75044;SDS011;63614;56.026;35.960;2023-04-15T08:20:22;6.50;;;2.55;;
75044;SDS011;63614;56.026;35.960;2023-04-15T08:22:49;24.05;;;3.28;;
75044;SDS011;63614;56.026;35.960;2023-04-15T08:25:17;6.88;;;2.08;;
75044;SDS011;63614;56.026;35.960;2023-04-15T08:27:45;12.10;;;2.50;;
75044;SDS011;63614;56.026;35.960;2023-04-15T08:30:12;6.18;;;1.92;;
75044;SDS011;63614;56.026;35.960;2023-04-15T08:32:41;4.75;;;1.85;;
75044;SDS011;63614;56.026;35.960;2023-04-15T08:35:08;6.47;;;1.92;;
75044;SDS011;63614;56.026;35.960;2023-04-15T08:37:35;9.23;;;2.17;;
75044;SDS011;63614;56.026;35.960;2023-04-15T08:40:03;10.30;;;2.15;;
75044;SDS011;63614;56.026;35.960;2023-04-15T08:42:31;11.43;;;2.38;;
75044;SDS011;63614;56.026;35.960;2023-04-15T08:45:08;2.80;;;1.70;;
75044;SDS011;63614;56.026;35.960;2023-04-15T08:47:37;13.13;;;2.08;;
75044;SDS011;63614;56.026;35.960;2023-04-15T08:50:07;10.80;;;2.65;;
75044;SDS011;63614;56.026;35.960;2023-04-15T08:52:36;5.43;;;2.05;;
75044;SDS011;63614;56.026;35.960;2023-04-15T08:55:03;6.78;;;2.17;;
75044;SDS011;63614;56.026;35.960;2023-04-15T08:57:31;9.88;;;2.40;;
75044;SDS011;63614;56.026;35.960;2023-04-15T08:59:59;9.15;;;2.00;;
75044;SDS011;63614;56.026;35.960;2023-04-15T09:02:29;5.18;;;1.70;;
75044;SDS011;63614;56.026;35.960;2023-04-15T09:07:23;6.85;;;2.22;;
75044;SDS011;63614;56.026;35.960;2023-04-15T09:09:50;13.43;;;2.80;;
75044;SDS011;63614;56.026;35.960;2023-04-15T09:12:17;9.30;;;2.03;;
75044;SDS011;63614;56.026;35.960;2023-04-15T09:14:45;11.88;;;2.00;;
75044;SDS011;63614;56.026;35.960;2023-04-15T09:17:13;3.45;;;1.85;;
75044;SDS011;63614;56.026;35.960;2023-04-15T09:19:44;15.85;;;2.05;;
75044;SDS011;63614;56.026;35.960;2023-04-15T09:22:12;11.48;;;1.90;;
75044;SDS011;63614;56.026;35.960;2023-04-15T09:24:39;4.50;;;2.00;;
75044;SDS011;63614;56.026;35.960;2023-04-15T09:27:07;5.20;;;2.10;;
75044;SDS011;63614;56.026;35.960;2023-04-15T09:29:34;7.95;;;2.38;;
75044;SDS011;63614;56.026;35.960;2023-04-15T09:34:36;8.10;;;2.30;;
75044;SDS011;63614;56.026;35.960;2023-04-15T09:37:03;6.70;;;2.05;;
75044;SDS011;63614;56.026;35.960;2023-04-15T09:39:47;15.27;;;2.40;;
75044;SDS011;63614;56.026;35.960;2023-04-15T09:42:18;4.32;;;2.17;;
75044;SDS011;63614;56.026;35.960;2023-04-15T09:44:52;11.73;;;2.20;;
75044;SDS011;63614;56.026;35.960;2023-04-15T09:47:26;27.30;;;2.72;;
75044;SDS011;63614;56.026;35.960;2023-04-15T09:50:00;4.03;;;2.10;;
75044;SDS011;63614;56.026;35.960;2023-04-15T09:52:28;7.00;;;2.42;;
75044;SDS011;63614;56.026;35.960;2023-04-15T09:57:33;8.70;;;2.65;;
75044;SDS011;63614;56.026;35.960;2023-04-15T10:00:05;7.68;;;1.98;;
75044;SDS011;63614;56.026;35.960;2023-04-15T10:02:51;6.00;;;2.28;;
75044;SDS011;63614;56.026;35.960;2023-04-15T10:05:19;16.02;;;2.45;;
75044;SDS011;63614;56.026;35.960;2023-04-15T10:10:13;4.25;;;2.25;;
75044;SDS011;63614;56.026;35.960;2023-04-15T10:12:40;5.80;;;2.10;;
75044;SDS011;63614;56.026;35.960;2023-04-15T10:15:11;8.68;;;2.28;;
75044;SDS011;63614;56.026;35.960;2023-04-15T10:17:42;6.03;;;2.22;;
75044;SDS011;63614;56.026;35.960;2023-04-15T10:20:10;7.05;;;2.20;;
75044;SDS011;63614;56.026;35.960;2023-04-15T10:22:40;5.82;;;2.00;;
75044;SDS011;63614;56.026;35.960;2023-04-15T10:25:07;3.55;;;1.95;;
75044;SDS011;63614;56.026;35.960;2023-04-15T10:27:36;8.15;;;2.22;;
75044;SDS011;63614;56.026;35.960;2023-04-15T10:30:05;3.13;;;1.95;;
75044;SDS011;63614;56.026;35.960;2023-04-15T10:34:59;3.80;;;2.20;;
75044;SDS011;63614;56.026;35.960;2023-04-15T10:37:34;5.07;;;2.33;;
75044;SDS011;63614;56.026;35.960;2023-04-15T10:42:54;5.95;;;1.83;;
75044;SDS011;63614;56.026;35.960;2023-04-15T10:45:24;5.80;;;2.22;;
75044;SDS011;63614;56.026;35.960;2023-04-15T10:47:55;11.88;;;2.30;;
75044;SDS011;63614;56.026;35.960;2023-04-15T10:50:27;6.53;;;2.08;;
75044;SDS011;63614;56.026;35.960;2023-04-15T10:52:58;7.03;;;2.50;;
75044;SDS011;63614;56.026;35.960;2023-04-15T10:55:31;12.25;;;2.50;;
75044;SDS011;63614;56.026;35.960;2023-04-15T10:58:16;9.45;;;2.20;;
75044;SDS011;63614;56.026;35.960;2023-04-15T11:00:49;7.82;;;2.70;;
75044;SDS011;63614;56.026;35.960;2023-04-15T11:03:36;4.72;;;2.20;;
75044;SDS011;63614;56.026;35.960;2023-04-15T11:06:07;12.88;;;2.50;;
75044;SDS011;63614;56.026;35.960;2023-04-15T11:14:31;5.75;;;2.13;;
75044;SDS011;63614;56.026;35.960;2023-04-15T11:17:00;11.57;;;2.28;;
75044;SDS011;63614;56.026;35.960;2023-04-15T11:22:31;6.95;;;2.42;;
75044;SDS011;63614;56.026;35.960;2023-04-15T11:25:24;17.17;;;2.38;;
75044;SDS011;63614;56.026;35.960;2023-04-15T11:27:52;6.63;;;2.15;;
75044;SDS011;63614;56.026;35.960;2023-04-15T11:30:21;6.38;;;2.80;;
75044;SDS011;63614;56.026;35.960;2023-04-15T11:32:53;3.40;;;1.92;;
75044;SDS011;63614;56.026;35.960;2023-04-15T11:35:23;8.23;;;2.60;;
75044;SDS011;63614;56.026;35.960;2023-04-15T11:37:51;8.45;;;2.53;;
75044;SDS011;63614;56.026;35.960;2023-04-15T11:40:22;4.40;;;2.25;;
75044;SDS011;63614;56.026;35.960;2023-04-15T11:45:58;15.98;;;2.50;;
75044;SDS011;63614;56.026;35.960;2023-04-15T11:48:27;5.43;;;2.30;;
75044;SDS011;63614;56.026;35.960;2023-04-15T11:51:02;7.88;;;2.20;;
75044;SDS011;63614;56.026;35.960;2023-04-15T11:56:38;5.72;;;2.60;;
75044;SDS011;63614;56.026;35.960;2023-04-15T11:59:04;10.98;;;2.08;;
75044;SDS011;63614;56.026;35.960;2023-04-15T12:01:33;4.28;;;2.28;;
75044;SDS011;63614;56.026;35.960;2023-04-15T12:04:01;6.00;;;2.28;;
75044;SDS011;63614;56.026;35.960;2023-04-15T12:06:31;10.57;;;2.27;;
75044;SDS011;63614;56.026;35.960;2023-04-15T12:09:16;6.60;;;2.30;;
75044;SDS011;63614;56.026;35.960;2023-04-15T12:11:45;5.53;;;2.13;;
75044;SDS011;63614;56.026;35.960;2023-04-15T12:16:58;9.73;;;2.10;;
75044;SDS011;63614;56.026;35.960;2023-04-15T12:19:29;7.13;;;2.45;;
75044;SDS011;63614;56.026;35.960;2023-04-15T12:22:09;11.43;;;2.80;;
75044;SDS011;63614;56.026;35.960;2023-04-15T12:24:37;9.63;;;2.53;;
75044;SDS011;63614;56.026;35.960;2023-04-15T12:27:04;15.77;;;2.83;;
75044;SDS011;63614;56.026;35.960;2023-04-15T12:29:37;7.93;;;2.53;;
75044;SDS011;63614;56.026;35.960;2023-04-15T12:32:05;5.55;;;2.70;;
75044;SDS011;63614;56.026;35.960;2023-04-15T12:34:43;10.02;;;2.70;;
75044;SDS011;63614;56.026;35.960;2023-04-15T12:37:14;6.53;;;2.60;;
75044;SDS011;63614;56.026;35.960;2023-04-15T12:39:58;7.60;;;2.40;;
75044;SDS011;63614;56.026;35.960;2023-04-15T12:45:27;6.47;;;2.35;;
75044;SDS011;63614;56.026;35.960;2023-04-15T12:48:12;10.48;;;2.40;;
75044;SDS011;63614;56.026;35.960;2023-04-15T12:50:37;6.43;;;2.30;;
75044;SDS011;63614;56.026;35.960;2023-04-15T12:53:03;11.80;;;3.05;;
75044;SDS011;63614;56.026;35.960;2023-04-15T12:55:29;8.68;;;2.38;;
75044;SDS011;63614;56.026;35.960;2023-04-15T12:57:57;7.68;;;2.90;;
75044;SDS011;63614;56.026;35.960;2023-04-15T13:00:23;5.68;;;2.70;;
75044;SDS011;63614;56.026;35.960;2023-04-15T13:05:33;13.65;;;3.08;;
75044;SDS011;63614;56.026;35.960;2023-04-15T13:10:28;9.23;;;2.80;;
75044;SDS011;63614;56.026;35.960;2023-04-15T13:12:54;6.82;;;2.70;;
75044;SDS011;63614;56.026;35.960;2023-04-15T13:15:21;6.47;;;2.60;;
75044;SDS011;63614;56.026;35.960;2023-04-15T13:17:47;20.10;;;3.28;;
75044;SDS011;63614;56.026;35.960;2023-04-15T13:20:13;15.35;;;3.22;;
75044;SDS011;63614;56.026;35.960;2023-04-15T13:22:40;7.25;;;2.65;;
75044;SDS011;63614;56.026;35.960;2023-04-15T13:25:06;9.68;;;2.75;;
75044;SDS011;63614;56.026;35.960;2023-04-15T13:27:32;17.80;;;3.00;;
75044;SDS011;63614;56.026;35.960;2023-04-15T13:29:58;5.72;;;2.22;;
75044;SDS011;63614;56.026;35.960;2023-04-15T13:32:24;13.95;;;3.15;;
75044;SDS011;63614;56.026;35.960;2023-04-15T13:34:50;19.42;;;2.90;;
75044;SDS011;63614;56.026;35.960;2023-04-15T13:37:16;10.43;;;3.00;;
75044;SDS011;63614;56.026;35.960;2023-04-15T13:39:42;14.38;;;3.05;;
75044;SDS011;63614;56.026;35.960;2023-04-15T13:42:08;5.72;;;3.47;;
75044;SDS011;63614;56.026;35.960;2023-04-15T13:44:34;12.05;;;2.63;;
75044;SDS011;63614;56.026;35.960;2023-04-15T13:47:00;7.43;;;2.47;;
75044;SDS011;63614;56.026;35.960;2023-04-15T13:49:26;11.45;;;2.72;;
75044;SDS011;63614;56.026;35.960;2023-04-15T13:51:51;8.10;;;2.60;;
75044;SDS011;63614;56.026;35.960;2023-04-15T13:54:17;8.38;;;2.90;;
75044;SDS011;63614;56.026;35.960;2023-04-15T13:56:43;12.50;;;3.47;;
75044;SDS011;63614;56.026;35.960;2023-04-15T13:59:27;10.73;;;3.35;;
75044;SDS011;63614;56.026;35.960;2023-04-15T14:01:53;11.20;;;3.33;;
75044;SDS011;63614;56.026;35.960;2023-04-15T14:04:18;26.27;;;3.45;;
75044;SDS011;63614;56.026;35.960;2023-04-15T14:06:45;11.98;;;2.92;;
75044;SDS011;63614;56.026;35.960;2023-04-15T14:09:10;10.00;;;2.90;;
75044;SDS011;63614;56.026;35.960;2023-04-15T14:11:37;10.00;;;3.47;;
75044;SDS011;63614;56.026;35.960;2023-04-15T14:14:04;8.05;;;2.60;;
75044;SDS011;63614;56.026;35.960;2023-04-15T14:16:31;11.73;;;2.75;;
75044;SDS011;63614;56.026;35.960;2023-04-15T14:19:16;10.38;;;3.10;;
75044;SDS011;63614;56.026;35.960;2023-04-15T14:21:42;12.70;;;2.90;;
75044;SDS011;63614;56.026;35.960;2023-04-15T14:24:07;8.52;;;3.17;;
75044;SDS011;63614;56.026;35.960;2023-04-15T14:26:34;6.28;;;3.08;;
75044;SDS011;63614;56.026;35.960;2023-04-15T14:28:59;20.90;;;3.53;;
75044;SDS011;63614;56.026;35.960;2023-04-15T14:31:25;15.55;;;3.15;;
75044;SDS011;63614;56.026;35.960;2023-04-15T14:33:51;8.57;;;3.30;;
75044;SDS011;63614;56.026;35.960;2023-04-15T14:36:17;7.95;;;2.70;;
75044;SDS011;63614;56.026;35.960;2023-04-15T14:38:42;9.15;;;3.10;;
75044;SDS011;63614;56.026;35.960;2023-04-15T14:41:08;7.35;;;3.08;;
75044;SDS011;63614;56.026;35.960;2023-04-15T14:43:34;10.23;;;2.97;;
75044;SDS011;63614;56.026;35.960;2023-04-15T14:46:00;6.22;;;2.83;;
75044;SDS011;63614;56.026;35.960;2023-04-15T14:48:45;5.20;;;3.10;;
75044;SDS011;63614;56.026;35.960;2023-04-15T14:51:30;16.77;;;3.60;;
75044;SDS011;63614;56.026;35.960;2023-04-15T14:54:14;10.85;;;3.33;;
75044;SDS011;63614;56.026;35.960;2023-04-15T14:56:40;8.50;;;3.00;;
75044;SDS011;63614;56.026;35.960;2023-04-15T14:59:06;11.65;;;3.58;;
75044;SDS011;63614;56.026;35.960;2023-04-15T15:01:32;10.77;;;3.97;;
75044;SDS011;63614;56.026;35.960;2023-04-15T15:03:58;9.63;;;3.50;;
75044;SDS011;63614;56.026;35.960;2023-04-15T15:06:24;10.38;;;3.25;;
75044;SDS011;63614;56.026;35.960;2023-04-15T15:08:50;7.07;;;2.95;;
75044;SDS011;63614;56.026;35.960;2023-04-15T15:11:16;15.38;;;3.67;;
75044;SDS011;63614;56.026;35.960;2023-04-15T15:13:41;17.40;;;3.40;;
75044;SDS011;63614;56.026;35.960;2023-04-15T15:16:07;9.30;;;2.95;;
75044;SDS011;63614;56.026;35.960;2023-04-15T15:18:34;13.75;;;3.38;;
75044;SDS011;63614;56.026;35.960;2023-04-15T15:21:00;15.25;;;3.38;;
75044;SDS011;63614;56.026;35.960;2023-04-15T15:23:26;10.13;;;3.40;;
75044;SDS011;63614;56.026;35.960;2023-04-15T15:25:52;13.73;;;3.83;;
75044;SDS011;63614;56.026;35.960;2023-04-15T15:28:17;13.68;;;3.33;;
75044;SDS011;63614;56.026;35.960;2023-04-15T15:30:43;15.80;;;3.60;;